createdAt,value
2017-11-23T00:00:56.421Z,5.90
2017-11-23T00:03:24.514Z,6.00
2017-11-23T00:05:52.596Z,5.90
2017-11-23T00:08:20.654Z,5.90
2017-11-23T00:10:48.733Z,5.90
2017-11-23T00:13:16.849Z,5.90
2017-11-23T00:15:44.936Z,5.90
2017-11-23T00:18:13.021Z,5.90
2017-11-23T00:20:41.110Z,5.90
2017-11-23T00:23:09.192Z,5.90
2017-11-23T00:25:38.038Z,5.90
2017-11-23T00:28:06.114Z,5.90
2017-11-23T00:30:34.211Z,6.00
2017-11-23T00:33:02.292Z,6.00
2017-11-23T00:35:30.697Z,6.00
2017-11-23T00:37:58.768Z,6.00
2017-11-23T00:40:26.853Z,6.00
2017-11-23T00:42:54.952Z,6.00
2017-11-23T00:45:23.144Z,6.00
2017-11-23T00:47:51.221Z,6.00
2017-11-23T00:50:19.310Z,6.10
2017-11-23T00:52:48.156Z,6.00
2017-11-23T00:55:16.256Z,5.90
2017-11-23T00:57:44.317Z,5.90
2017-11-23T01:00:12.396Z,5.80
2017-11-23T01:02:40.562Z,5.90
2017-11-23T01:05:08.642Z,6.00
2017-11-23T01:07:36.718Z,5.90
2017-11-23T01:10:04.803Z,5.90
2017-11-23T01:12:33.651Z,5.90
2017-11-23T01:15:01.732Z,5.70
2017-11-23T01:17:29.798Z,5.80
2017-11-23T01:19:57.974Z,5.90
2017-11-23T01:22:31.775Z,5.90
2017-11-23T01:24:59.868Z,5.90
2017-11-23T01:27:28.430Z,5.90
2017-11-23T01:29:56.503Z,5.90
2017-11-23T01:32:24.570Z,5.90
2017-11-23T01:34:53.449Z,6.00
2017-11-23T01:37:22.212Z,5.90
2017-11-23T01:39:50.288Z,6.00
2017-11-23T01:42:18.355Z,6.00
2017-11-23T01:44:46.836Z,6.10
2017-11-23T01:47:14.914Z,6.10
2017-11-23T01:49:42.997Z,6.10
2017-11-23T01:52:11.093Z,6.10
2017-11-23T01:54:39.172Z,6.10
2017-11-23T01:57:08.017Z,6.20
2017-11-23T01:59:36.084Z,6.10
2017-11-23T02:02:04.159Z,6.20
2017-11-23T02:04:32.228Z,6.20
2017-11-23T02:07:00.317Z,6.20
2017-11-23T02:09:28.380Z,6.30
2017-11-23T02:11:56.461Z,6.30
2017-11-23T02:14:24.552Z,6.20
2017-11-23T02:16:53.396Z,6.30
2017-11-23T02:19:21.456Z,6.20
2017-11-23T02:21:49.540Z,6.30
2017-11-23T02:24:17.600Z,6.40
2017-11-23T02:26:45.677Z,6.40
2017-11-23T02:29:13.740Z,6.40
2017-11-23T02:31:41.835Z,6.40
2017-11-23T02:34:09.903Z,6.50
2017-11-23T02:36:37.977Z,6.60
2017-11-23T02:39:06.075Z,6.60
2017-11-23T02:41:34.938Z,6.60
2017-11-23T02:44:03.004Z,6.60
2017-11-23T02:46:31.094Z,6.60
2017-11-23T02:48:59.267Z,6.60
2017-11-23T02:51:27.444Z,6.60
2017-11-23T02:53:55.609Z,6.70
2017-11-23T02:56:23.681Z,6.70
2017-11-23T02:58:51.743Z,6.70
2017-11-23T03:01:19.817Z,6.80
2017-11-23T03:03:47.898Z,6.80
2017-11-23T03:06:15.975Z,6.80
2017-11-23T03:08:44.856Z,6.60
2017-11-23T03:11:13.033Z,6.70
2017-11-23T03:13:41.111Z,6.70
2017-11-23T03:16:10.335Z,6.60
2017-11-23T03:18:38.407Z,6.60
2017-11-23T03:21:06.500Z,6.70
2017-11-23T03:23:34.573Z,6.70
2017-11-23T03:26:02.676Z,6.60
2017-11-23T03:28:30.749Z,6.50
2017-11-23T03:30:59.026Z,6.50
2017-11-23T03:33:27.089Z,6.50
2017-11-23T03:35:55.172Z,6.50
2017-11-23T03:38:23.856Z,6.50
2017-11-23T03:40:51.928Z,6.60
2017-11-23T03:43:19.997Z,6.60
2017-11-23T03:45:48.081Z,6.50
2017-11-23T03:48:16.924Z,6.50
2017-11-23T03:50:44.996Z,6.50
2017-11-23T03:53:13.076Z,6.50
2017-11-23T03:55:41.197Z,6.50
2017-11-23T03:58:09.290Z,6.40
2017-11-23T04:00:37.347Z,6.40
2017-11-23T04:03:10.974Z,6.40
2017-11-23T04:05:39.039Z,6.40
2017-11-23T04:08:07.117Z,6.30
2017-11-23T04:10:35.188Z,6.30
2017-11-23T04:13:03.255Z,6.40
2017-11-23T04:15:31.321Z,6.30
2017-11-23T04:17:59.423Z,6.30
2017-11-23T04:20:27.484Z,6.40
2017-11-23T04:22:55.664Z,6.40
2017-11-23T04:25:23.744Z,6.40
2017-11-23T04:27:51.918Z,6.40
2017-11-23T04:30:20.984Z,6.40
2017-11-23T04:32:49.068Z,6.30
2017-11-23T04:35:17.160Z,6.30
2017-11-23T04:37:45.325Z,6.30
2017-11-23T04:40:13.403Z,6.20
2017-11-23T04:42:41.575Z,6.10
2017-11-23T04:45:09.642Z,6.10
2017-11-23T04:47:37.723Z,6.10
2017-11-23T04:50:05.782Z,6.20
2017-11-23T04:52:33.872Z,6.20
2017-11-23T04:55:02.718Z,6.20
2017-11-23T04:57:30.796Z,6.10
2017-11-23T04:59:58.867Z,6.20
2017-11-23T05:02:27.010Z,6.10
2017-11-23T05:04:55.070Z,6.10
2017-11-23T05:07:23.157Z,6.10
2017-11-23T05:09:51.227Z,6.10
2017-11-23T05:12:19.302Z,6.20
2017-11-23T05:14:47.371Z,6.10
2017-11-23T05:17:15.496Z,6.10
2017-11-23T05:19:44.319Z,6.10
2017-11-23T05:22:12.399Z,6.00
2017-11-23T05:24:40.474Z,6.20
2017-11-23T05:27:08.557Z,6.20
2017-11-23T05:29:37.400Z,6.20
2017-11-23T05:32:05.491Z,6.10
2017-11-23T05:34:33.565Z,6.10
2017-11-23T05:37:01.655Z,6.10
2017-11-23T05:39:30.528Z,6.20
2017-11-23T05:41:58.609Z,6.20
2017-11-23T05:44:26.672Z,6.10
2017-11-23T05:46:54.758Z,6.10
2017-11-23T05:49:22.832Z,6.20
2017-11-23T05:51:51.100Z,6.10
2017-11-23T05:54:19.185Z,6.20
2017-11-23T05:56:47.247Z,6.20
2017-11-23T05:59:15.329Z,6.20
2017-11-23T06:01:43.398Z,6.20
2017-11-23T06:04:11.509Z,6.20
2017-11-23T06:06:40.339Z,6.10
2017-11-23T06:09:08.426Z,6.10
2017-11-23T06:11:36.634Z,6.10
2017-11-23T06:14:05.483Z,6.00
2017-11-23T06:16:33.551Z,6.10
2017-11-23T06:19:01.644Z,6.00
2017-11-23T06:21:29.712Z,6.10
2017-11-23T06:23:57.789Z,6.10
2017-11-23T06:26:26.003Z,6.20
2017-11-23T06:28:54.072Z,6.10
2017-11-23T06:31:22.142Z,6.20
2017-11-23T06:33:50.209Z,6.10
2017-11-23T06:36:18.276Z,6.10
2017-11-23T06:38:46.359Z,6.10
2017-11-23T06:41:14.423Z,6.10
2017-11-23T06:43:42.503Z,6.00
2017-11-23T06:46:10.881Z,6.10
2017-11-23T06:48:38.972Z,6.10
2017-11-23T06:51:07.054Z,6.10
2017-11-23T06:53:35.123Z,6.20
2017-11-23T06:56:03.180Z,6.20
2017-11-23T06:58:31.273Z,6.20
2017-11-23T07:00:59.340Z,6.20
2017-11-23T07:03:27.800Z,6.20
2017-11-23T07:05:55.877Z,6.10
2017-11-23T07:08:23.966Z,6.20
2017-11-23T07:10:52.038Z,6.20
2017-11-23T07:13:20.208Z,6.30
2017-11-23T07:15:48.297Z,6.30
2017-11-23T07:18:17.383Z,6.50
2017-11-23T07:20:45.460Z,6.60
2017-11-23T07:23:13.542Z,6.60
2017-11-23T07:25:42.513Z,6.70
2017-11-23T07:28:10.585Z,6.70
2017-11-23T07:30:38.803Z,6.80
2017-11-23T07:33:06.892Z,6.90
2017-11-23T07:35:34.972Z,7.00
2017-11-23T07:38:03.093Z,7.00
2017-11-23T07:40:31.942Z,7.20
2017-11-23T07:43:00.029Z,7.20
2017-11-23T07:45:28.120Z,7.30
2017-11-23T07:47:57.880Z,7.40
2017-11-23T07:50:25.980Z,7.40
2017-11-23T07:52:54.077Z,7.50
2017-11-23T07:55:22.925Z,7.60
2017-11-23T07:57:50.996Z,7.60
2017-11-23T08:00:19.220Z,7.70
2017-11-23T08:02:47.303Z,7.70
2017-11-23T08:05:15.373Z,7.90
2017-11-23T08:07:43.448Z,8.00
2017-11-23T08:10:11.549Z,8.00
2017-11-23T08:12:39.636Z,8.40
2017-11-23T09:37:06.180Z,10.10
2017-11-23T09:39:34.302Z,10.00
2017-11-23T09:42:02.419Z,10.30
2017-11-23T09:44:30.521Z,10.20
2017-11-23T09:46:58.624Z,10.40
2017-11-23T09:49:26.728Z,10.50
2017-11-23T09:51:54.962Z,10.70
2017-11-23T09:54:23.061Z,10.90
2017-11-23T09:56:51.162Z,11.00
2017-11-23T10:02:18.986Z,11.30
2017-11-23T10:04:47.102Z,11.30
2017-11-23T10:07:15.203Z,11.40
2017-11-23T10:09:43.307Z,11.30
2017-11-23T10:12:11.427Z,11.40
2017-11-23T10:14:44.427Z,11.40
2017-11-23T10:17:12.514Z,11.60
2017-11-23T10:19:41.418Z,12.10
2017-11-23T10:22:09.525Z,12.10
2017-11-23T10:24:37.687Z,12.30
2017-11-23T10:27:06.181Z,12.40
2017-11-23T10:29:34.927Z,12.50
2017-11-23T10:32:03.057Z,12.70
2017-11-23T10:34:31.202Z,12.90
2017-11-23T10:37:02.329Z,13.10
2017-11-23T10:39:30.467Z,13.20
2017-11-23T10:41:59.424Z,13.40
2017-11-23T10:44:27.548Z,13.40
2017-11-23T10:46:55.706Z,13.20
2017-11-23T10:49:24.666Z,13.30
2017-11-23T10:51:52.787Z,13.30
2017-11-23T10:54:21.089Z,13.30
2017-11-23T10:56:49.239Z,13.40
2017-11-23T10:59:17.446Z,13.30
2017-11-23T11:01:45.581Z,13.30
2017-11-23T11:04:13.709Z,13.20
2017-11-23T11:06:42.629Z,13.00
2017-11-23T11:09:11.012Z,13.00
2017-11-23T11:11:39.169Z,13.00
2017-11-23T11:14:08.089Z,13.20
2017-11-23T11:16:36.347Z,13.20
2017-11-23T11:19:04.507Z,13.30
2017-11-23T11:21:33.544Z,13.40
2017-11-23T11:24:01.806Z,13.30
2017-11-23T11:26:30.058Z,13.50
2017-11-23T11:28:59.049Z,13.50
2017-11-23T11:31:28.227Z,13.60
2017-11-23T11:33:57.229Z,13.50
2017-11-23T11:36:28.847Z,13.50
2017-11-23T11:38:57.352Z,13.40
2017-11-23T11:41:25.744Z,13.30
2017-11-23T11:43:54.047Z,13.30
2017-11-23T11:46:23.028Z,13.30
2017-11-23T11:48:52.127Z,13.30
2017-11-23T11:51:20.709Z,13.40
2017-11-23T11:53:50.193Z,13.20
2017-11-23T11:56:22.128Z,13.30
2017-11-23T11:58:52.605Z,13.20
2017-11-23T12:01:33.146Z,13.10
2017-11-23T12:07:11.787Z,13.20
2017-11-23T12:09:40.116Z,13.40
2017-11-23T12:12:08.965Z,13.50
2017-11-23T12:14:37.076Z,13.50
2017-11-23T12:17:45.338Z,13.50
2017-11-23T12:20:16.228Z,13.50
2017-11-23T12:25:57.903Z,13.40
2017-11-23T12:28:43.677Z,13.30
2017-11-23T12:31:11.769Z,13.40
2017-11-23T12:33:39.836Z,13.40
2017-11-23T12:36:07.931Z,13.40
2017-11-23T12:38:36.767Z,13.10
2017-11-23T12:41:04.848Z,13.10
2017-11-23T12:43:32.915Z,13.10
2017-11-23T12:46:00.996Z,13.10
2017-11-23T12:48:29.084Z,13.10
2017-11-23T12:50:57.915Z,13.10
2017-11-23T12:53:25.996Z,13.10
2017-11-23T12:55:54.089Z,13.20
2017-11-23T12:58:22.163Z,13.10
2017-11-23T13:00:50.244Z,13.00
2017-11-23T13:03:18.311Z,13.00
2017-11-23T13:05:46.483Z,13.00
2017-11-23T13:11:11.704Z,13.10
2017-11-23T13:13:39.804Z,13.10
2017-11-23T13:16:07.907Z,13.10
2017-11-23T13:18:35.993Z,13.20
2017-11-23T13:21:04.116Z,13.20
2017-11-23T13:23:33.564Z,13.20
2017-11-23T13:26:01.683Z,13.20
2017-11-23T13:28:30.561Z,13.20
2017-11-23T13:30:58.744Z,13.20
2017-11-23T13:33:26.835Z,13.10
2017-11-23T13:35:54.915Z,13.20
2017-11-23T13:38:23.006Z,13.20
2017-11-23T13:40:51.108Z,13.10
2017-11-23T13:43:19.233Z,13.20
2017-11-23T13:45:47.408Z,13.20
2017-11-23T13:48:15.525Z,13.10
2017-11-23T13:50:43.623Z,13.20
2017-11-23T13:53:12.497Z,13.10
2017-11-23T13:55:40.612Z,13.10
2017-11-23T13:58:08.761Z,13.20
2017-11-23T14:00:37.662Z,13.30
2017-11-23T14:03:05.777Z,13.30
2017-11-23T14:05:33.871Z,13.30
2017-11-23T14:08:02.745Z,13.40
2017-11-23T14:10:30.828Z,13.30
2017-11-23T14:12:58.947Z,13.40
2017-11-23T14:15:27.025Z,13.90
2017-11-23T14:17:55.113Z,14.80
2017-11-23T14:20:23.231Z,15.90
2017-11-23T14:22:52.149Z,17.20
2017-11-23T14:25:20.293Z,17.20
2017-11-23T14:27:49.218Z,18.00
2017-11-23T14:30:18.141Z,17.90
2017-11-23T14:32:46.252Z,17.60
2017-11-23T14:35:15.895Z,16.20
2017-11-23T14:37:44.593Z,16.20
2017-11-23T14:40:12.754Z,15.60
2017-11-23T14:42:40.900Z,15.30
2017-11-23T14:45:09.030Z,14.90
2017-11-23T14:47:37.172Z,14.60
2017-11-23T14:50:05.297Z,14.40
2017-11-23T14:52:33.473Z,14.00
2017-11-23T14:55:02.417Z,13.60
2017-11-23T14:57:30.673Z,13.60
2017-11-23T14:59:58.937Z,13.50
2017-11-23T15:02:27.083Z,13.40
2017-11-23T15:04:55.991Z,13.20
2017-11-23T15:07:24.196Z,13.20
2017-11-23T15:09:52.358Z,13.10
2017-11-23T15:12:20.515Z,13.00
2017-11-23T15:14:48.692Z,13.00
2017-11-23T15:17:16.936Z,12.90
2017-11-23T15:19:45.875Z,12.70
2017-11-23T15:22:14.260Z,12.70
2017-11-23T15:27:41.280Z,12.60
2017-11-23T15:30:10.298Z,12.70
2017-11-23T15:32:39.015Z,12.70
2017-11-23T15:35:07.799Z,12.60
2017-11-23T15:37:36.576Z,12.50
2017-11-23T15:40:05.140Z,12.50
2017-11-23T15:42:34.679Z,12.50
2017-11-23T15:45:05.498Z,12.40
2017-11-23T15:47:37.201Z,12.40
2017-11-23T15:50:08.121Z,12.30
2017-11-23T15:55:53.871Z,12.20
2017-11-23T15:58:21.939Z,12.30
2017-11-23T16:00:50.029Z,12.20
2017-11-23T16:03:18.152Z,12.20
2017-11-23T16:05:46.320Z,12.20
2017-11-23T16:08:14.393Z,12.20
2017-11-23T16:10:42.504Z,12.10
2017-11-23T16:13:10.575Z,12.10
2017-11-23T16:15:38.713Z,12.10
2017-11-23T16:21:04.264Z,12.20
2017-11-23T16:23:33.105Z,12.20
2017-11-23T16:26:01.180Z,12.20
2017-11-23T16:28:29.287Z,12.20
2017-11-23T16:30:58.175Z,12.30
2017-11-23T16:33:27.029Z,12.30
2017-11-23T16:35:55.095Z,12.30
2017-11-23T16:38:23.197Z,12.40
2017-11-23T16:41:02.925Z,12.40
2017-11-23T16:43:41.809Z,12.50
2017-11-23T16:46:09.884Z,12.50
2017-11-23T16:48:47.877Z,12.50
2017-11-23T16:51:21.587Z,12.50
2017-11-23T16:53:55.371Z,12.50
2017-11-23T16:59:41.092Z,12.40
2017-11-23T17:02:14.797Z,12.40
2017-11-23T17:04:48.351Z,12.40
2017-11-23T17:10:24.259Z,12.40
2017-11-23T17:13:00.818Z,12.40
2017-11-23T17:18:37.597Z,12.50
2017-11-23T17:21:06.457Z,12.50
2017-11-23T17:23:34.550Z,12.40
2017-11-23T17:26:03.404Z,12.50
2017-11-23T17:28:31.507Z,12.50
2017-11-23T17:30:59.695Z,12.50
2017-11-23T17:33:28.556Z,12.60
2017-11-23T17:35:56.735Z,12.60
2017-11-23T17:38:25.600Z,12.80
2017-11-23T17:40:53.717Z,12.80
2017-11-23T17:43:22.580Z,12.90
2017-11-23T17:45:50.696Z,12.90
2017-11-23T17:48:18.796Z,12.90
2017-11-23T17:50:46.918Z,12.90
2017-11-23T17:53:15.843Z,12.80
2017-11-23T17:55:43.961Z,12.80
2017-11-23T17:58:12.080Z,12.90
2017-11-23T18:00:40.185Z,12.90
2017-11-23T18:03:08.301Z,13.10
2017-11-23T18:05:36.398Z,13.10
2017-11-23T18:08:04.540Z,13.10
2017-11-23T18:10:33.500Z,13.10
2017-11-23T18:13:01.639Z,13.00
2017-11-23T18:15:29.779Z,13.10
2017-11-23T18:17:57.928Z,13.10
2017-11-23T18:20:26.046Z,13.10
2017-11-23T18:22:54.204Z,13.10
2017-11-23T18:25:22.318Z,13.10
2017-11-23T18:27:50.826Z,13.10
2017-11-23T18:30:19.927Z,13.20
2017-11-23T18:32:48.906Z,13.30
2017-11-23T18:35:17.045Z,13.30
2017-11-23T18:37:45.182Z,13.40
2017-11-23T18:40:13.323Z,13.40
2017-11-23T18:42:41.438Z,13.40
2017-11-23T18:45:09.567Z,13.40
2017-11-23T18:47:38.507Z,13.30
2017-11-23T18:50:06.804Z,13.30
2017-11-23T18:52:35.201Z,13.20
2017-11-23T18:55:03.362Z,13.10
2017-11-23T18:57:32.319Z,13.00
2017-11-23T19:00:00.548Z,12.90
2017-11-23T19:02:28.778Z,12.80
2017-11-23T19:04:57.007Z,12.80
2017-11-23T19:07:25.986Z,12.70
2017-11-23T19:09:54.200Z,12.60
2017-11-23T19:12:22.484Z,12.60
2017-11-23T19:14:50.839Z,12.50
2017-11-23T19:17:19.168Z,12.50
2017-11-23T19:19:47.425Z,12.40
2017-11-23T19:22:15.687Z,12.40
2017-11-23T19:24:43.876Z,12.30
2017-11-23T19:27:12.163Z,12.30
2017-11-23T19:29:40.550Z,12.30
2017-11-23T19:32:08.706Z,12.30
2017-11-23T19:34:36.867Z,12.30
2017-11-23T19:37:05.065Z,12.20
2017-11-23T19:39:33.221Z,12.20
2017-11-23T19:42:01.402Z,12.10
2017-11-23T19:44:29.587Z,12.10
2017-11-23T19:46:57.764Z,12.10
2017-11-23T19:49:25.951Z,12.10
2017-11-23T19:51:54.885Z,12.00
2017-11-23T19:54:23.023Z,12.00
2017-11-23T19:56:51.966Z,11.90
2017-11-23T19:59:20.126Z,12.00
2017-11-23T20:01:48.267Z,11.90
2017-11-23T20:04:17.185Z,11.90
2017-11-23T20:06:45.320Z,11.90
2017-11-23T20:09:14.219Z,11.90
2017-11-23T20:11:42.300Z,11.90
2017-11-23T20:14:10.441Z,12.00
2017-11-23T20:16:38.534Z,12.10
2017-11-23T20:19:07.517Z,12.20
2017-11-23T20:21:36.371Z,12.30
2017-11-23T20:24:04.477Z,12.20
2017-11-23T20:26:33.334Z,12.30
2017-11-23T20:29:01.422Z,12.30
2017-11-23T20:31:29.509Z,12.30
2017-11-23T20:33:58.373Z,12.40
2017-11-23T20:36:26.466Z,12.40
2017-11-23T20:38:54.552Z,12.50
2017-11-23T20:41:23.401Z,12.50
2017-11-23T20:43:51.498Z,12.50
2017-11-23T20:46:20.344Z,12.50
2017-11-23T20:48:48.424Z,12.50
2017-11-23T20:51:16.508Z,12.50
2017-11-23T20:53:44.583Z,12.60
2017-11-23T20:56:12.671Z,12.60
2017-11-23T20:58:40.741Z,12.60
2017-11-23T21:01:08.808Z,12.50
2017-11-23T21:03:36.906Z,12.60
2017-11-23T21:06:05.727Z,12.60
2017-11-23T21:08:33.817Z,12.60
2017-11-23T21:11:01.900Z,12.70
2017-11-23T21:13:29.969Z,12.70
2017-11-23T21:15:58.059Z,12.70
2017-11-23T21:18:26.917Z,12.70
2017-11-23T21:20:54.999Z,12.70
2017-11-23T21:23:23.189Z,12.70
2017-11-23T21:25:51.454Z,12.70
2017-11-23T21:28:19.544Z,12.70
2017-11-23T21:30:48.383Z,12.80
2017-11-23T21:33:16.470Z,12.80
2017-11-23T21:35:44.547Z,12.80
2017-11-23T21:38:12.631Z,12.80
2017-11-23T21:40:40.694Z,12.90
2017-11-23T21:43:08.785Z,12.90
2017-11-23T21:45:37.630Z,12.90
2017-11-23T21:48:05.733Z,12.90
2017-11-23T21:50:33.813Z,12.80
2017-11-23T21:53:02.668Z,12.80
2017-11-23T21:55:30.746Z,12.90
2017-11-23T21:57:58.833Z,12.80
2017-11-23T22:00:26.913Z,12.80
2017-11-23T22:02:55.781Z,12.80
2017-11-23T22:05:23.864Z,12.80
2017-11-23T22:07:52.723Z,12.90
2017-11-23T22:10:20.787Z,12.90
2017-11-23T22:12:48.873Z,12.90
2017-11-23T22:15:16.969Z,12.80
2017-11-23T22:17:45.810Z,12.80
2017-11-23T22:20:13.894Z,12.80
2017-11-23T22:22:41.985Z,12.80
2017-11-23T22:25:10.081Z,12.70
2017-11-23T22:27:38.919Z,12.70
2017-11-23T22:30:07.015Z,12.70
2017-11-23T22:32:35.084Z,12.70
2017-11-23T22:35:03.167Z,12.70
2017-11-23T22:37:32.025Z,12.70
2017-11-23T22:40:00.102Z,12.70
2017-11-23T22:42:28.189Z,12.60
2017-11-23T22:44:56.272Z,12.60
2017-11-23T22:47:25.119Z,12.70
2017-11-23T22:49:53.614Z,12.60
2017-11-23T22:52:21.676Z,12.70
2017-11-23T22:54:49.747Z,12.70
2017-11-23T22:57:17.950Z,12.80
2017-11-23T22:59:46.018Z,12.70
2017-11-23T23:02:14.189Z,12.80
2017-11-23T23:04:42.269Z,12.80
2017-11-23T23:07:11.121Z,12.70
2017-11-23T23:09:39.202Z,12.70
2017-11-23T23:12:07.283Z,12.80
2017-11-23T23:14:35.363Z,12.80
2017-11-23T23:17:03.457Z,12.90
2017-11-23T23:19:32.305Z,12.80
2017-11-23T23:22:00.546Z,12.90
2017-11-23T23:24:28.626Z,12.70
2017-11-23T23:26:56.717Z,12.70
2017-11-23T23:29:24.797Z,12.70
2017-11-23T23:31:53.047Z,12.70
2017-11-23T23:34:21.910Z,12.70
2017-11-23T23:36:49.983Z,12.70
2017-11-23T23:39:18.078Z,12.70
2017-11-23T23:41:46.913Z,12.80
2017-11-23T23:44:15.747Z,12.80
2017-11-23T23:46:43.855Z,12.80
2017-11-23T23:49:11.977Z,12.80
2017-11-23T23:51:40.062Z,12.60
2017-11-23T23:54:08.200Z,12.50
2017-11-23T23:56:37.208Z,12.50
2017-11-23T23:59:05.286Z,12.30
